Weather reports worldwide

Advertisment
Paganella, Italy (16022): temperature & dewpoint: 11.08.2018 22:00:00 - 17.08.2018 22:00:00 (CEST)Paganella, Italy (16022): wind speed: 11.08.2018 22:00:00 - 17.08.2018 22:00:00 (CEST)Paganella, Italy (16022): wind direction: 11.08.2018 22:00:00 - 17.08.2018 22:00:00 (CEST)Paganella, Italy (16022): visibility: 11.08.2018 22:00:00 - 17.08.2018 22:00:00 (CEST)Paganella, Italy (16022): sunshine duration: 11.08.2018 22:00:00 - 17.08.2018 22:00:00 (CEST)
Date & Time tt [°C] td [°C] ff [km/h] ff [kn] dd vv [km] sd [min]
17.08.2018 22:00:00 11,2 9,3 15 8 WSW 15 -
17.08.2018 21:00:00 11,8 8,7 13 7 SSW 20 0
17.08.2018 20:00:00 12,2 7,9 11 6 S 30 0
17.08.2018 19:00:00 13,7 8,1 11 6 SSW 30 30
17.08.2018 18:00:00 16,0 8,7 15 8 WSW 30 60
17.08.2018 17:00:00 16,9 9,4 9 5 SSW 30 60
17.08.2018 16:00:00 16,4 9,1 9 5 N 30 60
17.08.2018 15:00:00 15,0 8,5 9 5 N 20 60
17.08.2018 14:00:00 13,6 9,3 9 5 N 10 12
17.08.2018 13:00:00 13,6 9,2 9 5 N 10 18
17.08.2018 12:00:00 13,0 9,6 9 5 N 1,2 0
17.08.2018 11:00:00 12,0 9,4 9 5 N 1,3 0
17.08.2018 10:00:00 11,8 9,2 5 3 N 1,5 30
17.08.2018 09:00:00 10,6 7,5 4 2 N 40 12
17.08.2018 08:00:00 10,2 6,0 5 3 SSW 45 30
17.08.2018 07:00:00 9,4 5,4 4 2 N 50 0
17.08.2018 06:00:00 9,0 4,8 13 7 SSW 40 -
17.08.2018 05:00:00 9,0 5,4 11 6 S 40 -
17.08.2018 04:00:00 8,6 4,4 18 10 S 30 -
17.08.2018 03:00:00 8,6 5,9 22 12 S 40 -
17.08.2018 02:00:00 9,0 6,4 29 16 S 40 -
17.08.2018 01:00:00 9,0 7,0 26 14 S 40 -
17.08.2018 00:00:00 9,4 8,7 26 14 SW 30 -
16.08.2018 23:00:00 9,4 8,5 26 14 SSW 40 -
16.08.2018 22:00:00 9,4 8,5 29 16 SSW 40 -
16.08.2018 21:00:00 10,2 7,3 29 16 SW 40 0
16.08.2018 20:00:00 11,2 7,9 24 13 S 40 30
16.08.2018 19:00:00 13,2 8,3 26 14 SSW 50 60
16.08.2018 18:00:00 14,2 8,8 18 10 SW 50 60
16.08.2018 17:00:00 15,0 9,6 22 12 SW 50 60
16.08.2018 16:00:00 15,2 4,9 13 7 WSW 50 60
16.08.2018 15:00:00 14,0 10,0 11 6 SSW 20 48
16.08.2018 14:00:00 12,8 8,9 9 5 SW 15 42
16.08.2018 13:00:00 12,0 8,3 11 6 SSW 15 6
16.08.2018 12:00:00 11,2 8,8 8 4 SSE 0,9 0
16.08.2018 11:00:00 10,6 9,0 9 5 S 0,9 0
16.08.2018 10:00:00 10,2 9,0 4 2 N 0,9 0
16.08.2018 09:00:00 10,0 9,1 4 2 SSW 0,9 0
16.08.2018 08:00:00 10,0 9,2 0 0 N 0,9 0
16.08.2018 07:00:00 9,4 8,6 5 3 WSW 12 0
16.08.2018 06:00:00 9,6 8,2 5 3 SW 12 -
16.08.2018 05:00:00 9,8 9,0 4 2 S 20 -
16.08.2018 04:00:00 10,0 8,4 13 7 SW 20 -
16.08.2018 03:00:00 10,0 7,6 9 5 S 40 -
16.08.2018 02:00:00 10,0 7,6 9 5 S 40 -
16.08.2018 01:00:00 10,0 7,2 4 2 SSW 60 -
16.08.2018 00:00:00 10,0 7,6 5 3 SW 60 -
15.08.2018 23:00:00 10,2 7,3 4 2 SSW 75 -
15.08.2018 22:00:00 11,2 6,4 5 3 SSW 60 -
15.08.2018 21:00:00 12,2 4,4 5 3 S 60 0
15.08.2018 20:00:00 13,2 4,4 5 3 N 75 60
15.08.2018 19:00:00 13,2 5,6 4 2 N 75 54
15.08.2018 18:00:00 13,6 5,0 5 3 NNE 75 60
15.08.2018 17:00:00 13,4 5,3 4 2 N 75 60
15.08.2018 16:00:00 13,4 4,6 4 2 NNW 75 0
15.08.2018 15:00:00 13,2 3,0 5 3 NNW 75 48
15.08.2018 14:00:00 12,2 3,2 8 4 N 75 36
15.08.2018 13:00:00 12,2 3,7 11 6 N 75 60
15.08.2018 12:00:00 11,2 3,2 9 5 N 75 60
15.08.2018 11:00:00 10,0 2,6 15 8 N 75 60
15.08.2018 10:00:00 9,4 2,9 8 4 NW 75 60
15.08.2018 09:00:00 9,0 3,2 13 7 N 75 60
15.08.2018 08:00:00 8,0 3,1 11 6 NNW 75 60
15.08.2018 07:00:00 7,4 3,3 29 16 N 75 0
15.08.2018 06:00:00 7,0 3,2 28 15 N 75 -
15.08.2018 05:00:00 7,2 3,4 34 18 N 50 -
15.08.2018 04:00:00 7,4 2,7 28 15 N 50 -
15.08.2018 03:00:00 7,8 4,2 29 16 N 50 -
15.08.2018 02:00:00 7,8 4,8 26 14 N 50 -
15.08.2018 01:00:00 7,9 5,5 26 14 N 50 -
15.08.2018 00:00:00 8,0 6,0 15 8 N 50 -
14.08.2018 23:00:00 8,8 6,4 9 5 N 40 -
14.08.2018 22:00:00 9,0 6,6 11 6 NNW 50 -
14.08.2018 21:00:00 9,4 7,5 15 8 N 50 0
14.08.2018 20:00:00 10,2 8,1 9 5 NNW 50 0
14.08.2018 19:00:00 11,6 7,9 0 0 N 10 18
14.08.2018 18:00:00 10,4 3,4 8 4 N 20 24
14.08.2018 17:00:00 12,4 6,7 4 2 N 60 0
14.08.2018 16:00:00 12,2 7,5 5 3 N 60 6
14.08.2018 15:00:00 12,6 6,9 8 4 N 50 0
14.08.2018 14:00:00 12,0 5,0 5 3 N 40 0
14.08.2018 13:00:00 11,2 5,1 11 6 N 60 12
14.08.2018 12:00:00 10,8 5,4 11 6 N 60 0
14.08.2018 11:00:00 10,6 5,8 8 4 N 50 0
14.08.2018 10:00:00 9,6 5,4 11 6 N 60 0
14.08.2018 09:00:00 9,4 5,4 9 5 N 60 0
14.08.2018 08:00:00 9,0 5,8 8 4 N 50 0
14.08.2018 07:00:00 9,2 8,0 8 4 N 50 0
14.08.2018 06:00:00 9,2 7,3 5 3 N 50 -
14.08.2018 05:00:00 9,0 8,7 0 0 N 0,3 -
14.08.2018 04:00:00 9,6 9,1 0 0 N 0,3 -
14.08.2018 03:00:00 9,8 9,2 4 2 SSW 0,3 -
14.08.2018 02:00:00 9,8 9,2 8 4 SSW 0,3 -
14.08.2018 01:00:00 10,0 9,5 13 7 SSW - -
14.08.2018 00:00:00 10,0 9,7 15 8 SSW - -
13.08.2018 23:00:00 10,2 9,9 29 16 SSW - -
13.08.2018 22:00:00 10,6 10,6 34 18 SW - -
13.08.2018 21:00:00 11,0 11,0 28 15 SSW - 0
13.08.2018 20:00:00 11,0 11,0 18 10 SSW - 0
13.08.2018 19:00:00 11,2 11,2 34 18 SW - 0
13.08.2018 18:00:00 12,0 10,2 37 20 SW 0,3 0
13.08.2018 17:00:00 12,0 7,1 35 19 SW 10 0
13.08.2018 16:00:00 13,0 10,2 39 21 WSW 10 6
13.08.2018 15:00:00 12,8 10,7 29 16 SW 10 0
13.08.2018 14:00:00 16,0 11,4 28 15 SSW 10 60
13.08.2018 13:00:00 14,0 11,0 18 10 SW 10 30
13.08.2018 12:00:00 13,2 12,4 15 8 SW 0,9 18
13.08.2018 11:00:00 12,4 10,0 13 7 SSW 0,9 18
13.08.2018 10:00:00 12,0 9,7 15 8 S 0,8 0
13.08.2018 09:00:00 11,6 10,0 5 3 SSW 0,9 12
13.08.2018 08:00:00 11,2 9,6 4 2 N 0,9 24
13.08.2018 07:00:00 10,2 9,4 0 0 N 10 6
13.08.2018 06:00:00 10,0 9,1 0 0 N 12 -
13.08.2018 05:00:00 9,8 9,0 4 2 N 0,3 -
13.08.2018 04:00:00 10,0 9,1 4 2 N - -
13.08.2018 03:00:00 10,0 10,0 5 3 SSW - -
13.08.2018 02:00:00 10,0 10,0 15 8 SSW - -
13.08.2018 01:00:00 10,0 9,2 13 7 SSW 10 -
13.08.2018 00:00:00 10,0 8,8 9 5 WSW 20 -
12.08.2018 23:00:00 10,8 8,4 8 4 W 20 -
12.08.2018 22:00:00 11,0 8,6 9 5 W 20 -
12.08.2018 21:00:00 10,6 9,8 9 5 WSW 20 0
12.08.2018 20:00:00 11,0 9,6 29 16 WSW 0,1 6
12.08.2018 19:00:00 12,0 8,7 22 12 SSW 20 6
12.08.2018 18:00:00 12,2 6,9 26 14 SW 20 0
12.08.2018 17:00:00 11,2 7,9 29 16 SW 10 0
12.08.2018 16:00:00 13,6 10,2 18 10 SSW 10 12
12.08.2018 15:00:00 14,6 10,0 11 6 SSW 10 12
12.08.2018 14:00:00 12,0 8,1 11 6 SSW 10 0
12.08.2018 13:00:00 12,2 9,6 15 8 SSW 0,9 0
12.08.2018 12:00:00 12,8 9,8 11 6 S - 6
12.08.2018 11:00:00 12,6 9,4 9 5 S 0,9 36
12.08.2018 10:00:00 11,2 9,3 16 9 S 0,6 12
12.08.2018 09:00:00 10,6 9,8 16 9 SSE 0,9 6
12.08.2018 08:00:00 10,0 10,0 8 4 SSE - 0
12.08.2018 07:00:00 10,0 10,0 13 7 S - 0
12.08.2018 06:00:00 10,2 10,2 16 9 S - -
12.08.2018 05:00:00 10,4 10,4 9 5 S - -
12.08.2018 04:00:00 10,6 10,0 15 8 S - -
12.08.2018 03:00:00 10,8 10,5 15 8 SSW - -
12.08.2018 02:00:00 10,8 10,8 13 7 S - -
12.08.2018 01:00:00 10,8 10,8 8 4 S - -
12.08.2018 00:00:00 11,2 10,3 4 2 S 0,3 -
11.08.2018 23:00:00 11,6 9,7 9 5 SSW 15 -
11.08.2018 22:00:00 12,2 9,0 9 5 WSW 25 -

tt = temperature
td = dewpoint
ff = wind speed
dd = wind direction
vv = visibility
sd = sunshine duration

Next stations